Time;durP1;ratioP1;P1;durP2;ratioP2;P2;SDS_P1;SDS_P2;PMS_P1;PMS_P2;Temp;Humidity;BMP_temperature;BMP_pressure;BME280_temperature;BME280_humidity;BME280_pressure;Samples;Min_cycle;Max_cycle;Signal;HPM_P1;HPM_P2
2022/06/26 00:01:59;;;;;;;8.87;4.10;;;19.40;72.30;;;;;;5028560;28;20227;-90
2022/06/26 00:04:26;;;;;;;11.80;5.07;;;19.40;71.90;;;;;;5029810;28;20262;-91
2022/06/26 00:06:54;;;;;;;22.67;8.07;;;19.30;72.10;;;;;;5026625;28;20293;-89
2022/06/26 00:09:25;;;;;;;9.57;4.30;;;19.30;72.30;;;;;;5014105;28;20211;-91
2022/06/26 00:11:52;;;;;;;10.07;4.40;;;19.30;72.90;;;;;;5022034;28;20230;-88
2022/06/26 00:14:19;;;;;;;10.97;4.90;;;19.30;72.50;;;;;;5029608;28;20203;-91
2022/06/26 00:16:46;;;;;;;11.03;4.63;;;19.30;72.80;;;;;;5028496;28;20683;-91
2022/06/26 00:19:14;;;;;;;11.37;4.87;;;19.20;73.00;;;;;;5029030;28;20259;-93
2022/06/26 00:21:42;;;;;;;7.13;3.73;;;19.20;73.30;;;;;;5028699;28;20233;-90
2022/06/26 00:24:09;;;;;;;10.10;4.83;;;19.20;73.30;;;;;;5028489;28;20203;-92
2022/06/26 00:26:37;;;;;;;8.90;4.13;;;19.20;73.40;;;;;;5014391;28;20739;-89
2022/06/26 00:29:07;;;;;;;9.00;4.37;;;19.20;74.00;;;;;;5021751;28;20269;-90
2022/06/26 00:31:35;;;;;;;10.63;4.37;;;19.20;73.80;;;;;;5027797;28;20250;-91
2022/06/26 00:34:03;;;;;;;16.53;5.93;;;19.20;74.10;;;;;;5026012;28;20205;-93
2022/06/26 00:36:32;;;;;;;8.90;4.20;;;19.20;74.20;;;;;;5029633;28;20243;-91
2022/06/26 00:38:59;;;;;;;9.67;4.30;;;19.20;74.30;;;;;;5021774;28;20651;-90
2022/06/26 00:41:26;;;;;;;11.70;4.70;;;19.20;74.20;;;;;;5018068;28;20211;-89
2022/06/26 00:43:55;;;;;;;9.17;4.03;;;19.10;74.20;;;;;;5016703;28;20192;-90
2022/06/26 00:46:24;;;;;;;12.60;4.67;;;19.10;74.70;;;;;;5033901;28;20293;-91
2022/06/26 00:48:52;;;;;;;11.73;4.80;;;19.20;74.50;;;;;;5036890;28;20316;-91
2022/06/26 00:51:20;;;;;;;10.03;4.67;;;19.10;74.50;;;;;;5034398;28;20585;-90
2022/06/26 00:53:50;;;;;;;14.00;5.83;;;19.10;74.70;;;;;;5034037;28;20278;-90
2022/06/26 00:56:17;;;;;;;10.83;4.63;;;19.10;74.80;;;;;;5036105;28;20272;-90
2022/06/26 00:58:47;;;;;;;14.10;5.57;;;19.10;74.70;;;;;;5034307;28;20223;-89
2022/06/26 01:01:18;;;;;;;9.80;4.27;;;19.10;75.50;;;;;;5019126;28;20208;-92
2022/06/26 01:03:45;;;;;;;10.20;4.60;;;19.10;75.30;;;;;;5034659;28;20314;-90
2022/06/26 01:06:12;;;;;;;11.47;4.63;;;19.10;75.10;;;;;;5033399;28;20699;-92
2022/06/26 01:08:39;;;;;;;13.93;6.43;;;19.10;75.50;;;;;;5033855;28;20285;-89
2022/06/26 01:11:17;;;;;;;11.93;5.07;;;19.10;75.40;;;;;;5032518;28;20510;-90
2022/06/26 01:13:46;;;;;;;10.67;4.90;;;19.10;75.40;;;;;;5034246;28;20223;-89
2022/06/26 01:16:16;;;;;;;13.13;5.67;;;19.10;75.60;;;;;;5042500;28;21231;-90
2022/06/26 01:18:44;;;;;;;9.17;3.90;;;19.10;75.70;;;;;;5046207;28;20202;-90
2022/06/26 01:21:12;;;;;;;14.40;6.10;;;19.10;75.40;;;;;;5037991;28;20543;-90
2022/06/26 01:23:43;;;;;;;10.90;5.03;;;19.00;75.30;;;;;;5039345;28;20270;-90
2022/06/26 01:26:10;;;;;;;14.20;5.70;;;19.00;75.90;;;;;;5032409;28;20209;-88
2022/06/26 01:28:37;;;;;;;9.73;4.37;;;19.00;75.60;;;;;;5033496;28;20220;-91
2022/06/26 01:31:05;;;;;;;11.90;5.53;;;19.00;75.60;;;;;;5032445;28;20228;-89
2022/06/26 01:33:33;;;;;;;11.20;4.93;;;19.00;75.90;;;;;;5048147;28;20236;-89
2022/06/26 01:36:00;;;;;;;9.40;4.33;;;19.00;75.80;;;;;;5051524;28;20234;-87
2022/06/26 01:38:27;;;;;;;10.23;4.83;;;19.00;76.60;;;;;;5040979;28;20225;-88
2022/06/26 01:40:57;;;;;;;9.33;4.37;;;18.90;75.80;;;;;;5031884;28;20282;-90
2022/06/26 01:43:27;;;;;;;7.97;4.17;;;18.90;75.90;;;;;;5039339;28;20207;-89
2022/06/26 01:45:56;;;;;;;12.40;4.63;;;18.90;75.80;;;;;;5034908;28;20223;-90
2022/06/26 01:48:25;;;;;;;10.33;4.83;;;18.90;76.90;;;;;;5034663;28;20564;-88
2022/06/26 01:50:53;;;;;;;11.27;4.53;;;18.90;76.20;;;;;;5033804;28;20216;-93
2022/06/26 01:53:21;;;;;;;10.80;4.33;;;18.90;76.20;;;;;;5031854;28;20266;-89
2022/06/26 01:55:48;;;;;;;17.03;6.47;;;18.80;76.30;;;;;;5031369;28;20216;-89
2022/06/26 01:58:19;;;;;;;11.53;5.60;;;18.80;76.30;;;;;;5041712;28;20210;-90
2022/06/26 02:00:50;;;;;;;16.53;6.27;;;18.80;76.50;;;;;;5050603;28;20198;-90
2022/06/26 02:03:18;;;;;;;7.73;4.20;;;18.80;76.50;;;;;;5046536;28;20206;-89
2022/06/26 02:05:46;;;;;;;10.57;4.23;;;18.80;76.40;;;;;;5037544;28;20641;-89
2022/06/26 02:08:13;;;;;;;11.57;4.97;;;18.80;76.60;;;;;;5037048;28;20215;-90
2022/06/26 02:13:40;;;;;;;14.03;5.77;;;18.80;76.50;;;;;;5027594;28;20306;-88
2022/06/26 02:16:14;;;;;;;14.97;5.80;;;18.80;77.20;;;;;;5010946;28;20259;-90
2022/06/26 02:18:43;;;;;;;10.97;4.63;;;18.70;77.00;;;;;;5033403;28;20344;-90
2022/06/26 02:21:13;;;;;;;12.23;5.33;;;18.70;76.90;;;;;;5031214;28;20201;-91
2022/06/26 02:23:45;;;;;;;10.97;5.13;;;18.70;77.20;;;;;;5010976;28;20215;-91
2022/06/26 02:26:13;;;;;;;17.23;6.73;;;18.80;77.30;;;;;;5010490;28;20204;-89
2022/06/26 02:28:42;;;;;;;13.37;5.93;;;18.70;77.10;;;;;;5029341;28;20255;-89
2022/06/26 02:31:09;;;;;;;11.97;5.40;;;18.70;77.30;;;;;;5029830;28;20204;-89
2022/06/26 02:33:36;;;;;;;12.70;5.20;;;18.70;77.10;;;;;;5027836;28;20230;-89
2022/06/26 02:36:05;;;;;;;13.30;5.40;;;18.70;77.20;;;;;;5029018;28;20248;-88
2022/06/26 02:38:32;;;;;;;12.57;5.47;;;18.70;77.20;;;;;;5023538;28;20652;-88
2022/06/26 02:41:00;;;;;;;12.70;5.70;;;18.70;77.20;;;;;;5009533;28;20248;-89
2022/06/26 02:43:27;;;;;;;10.63;5.20;;;18.70;77.40;;;;;;5025246;28;20281;-88
2022/06/26 02:45:56;;;;;;;13.17;5.73;;;18.70;77.30;;;;;;5029407;28;20769;-89
2022/06/26 02:48:25;;;;;;;17.43;7.10;;;18.70;77.50;;;;;;5027492;28;20213;-90
2022/06/26 02:50:52;;;;;;;12.73;5.87;;;18.70;78.20;;;;;;5029986;28;20215;-88
2022/06/26 02:53:19;;;;;;;11.77;5.10;;;18.60;77.10;;;;;;5028639;28;20667;-89
2022/06/26 02:55:46;;;;;;;11.47;4.97;;;18.60;77.10;;;;;;5030221;28;20663;-89
2022/06/26 02:58:13;;;;;;;11.17;5.73;;;18.60;77.90;;;;;;5026592;28;20225;-91
2022/06/26 03:00:41;;;;;;;13.67;5.77;;;18.60;77.20;;;;;;5027321;28;20204;-90
2022/06/26 03:03:09;;;;;;;11.10;4.67;;;18.50;77.30;;;;;;5029119;28;20205;-90
2022/06/26 03:05:36;;;;;;;11.77;4.97;;;18.50;77.60;;;;;;5028330;28;20982;-90
2022/06/26 03:08:04;;;;;;;9.83;5.07;;;18.50;77.40;;;;;;5014604;28;20242;-90
2022/06/26 03:10:31;;;;;;;11.63;4.83;;;18.50;77.50;;;;;;5027776;28;20288;-88
2022/06/26 03:12:59;;;;;;;10.33;4.83;;;18.40;77.40;;;;;;5026535;28;20248;-89
2022/06/26 03:15:27;;;;;;;15.13;6.10;;;18.40;77.70;;;;;;5027964;28;20495;-90
2022/06/26 03:17:54;;;;;;;13.00;5.43;;;18.40;77.50;;;;;;5029382;28;20206;-89
2022/06/26 03:20:26;;;;;;;9.87;4.73;;;18.40;77.60;;;;;;5028455;28;20307;-89
2022/06/26 03:22:52;;;;;;;9.10;4.57;;;18.40;78.00;;;;;;5030088;28;20241;-89
2022/06/26 03:25:20;;;;;;;13.60;5.70;;;18.30;77.60;;;;;;5028053;28;20256;-88
2022/06/26 03:27:47;;;;;;;11.23;5.10;;;18.40;77.80;;;;;;5027989;28;20226;-91
2022/06/26 03:30:14;;;;;;;11.20;4.97;;;18.30;77.80;;;;;;5028497;28;20210;-90
2022/06/26 03:32:44;;;;;;;10.50;4.60;;;18.30;77.90;;;;;;5028878;28;20278;-89
2022/06/26 03:35:12;;;;;;;12.70;5.73;;;18.30;77.90;;;;;;5028138;28;20660;-89
2022/06/26 03:37:40;;;;;;;8.90;4.53;;;18.30;77.90;;;;;;5028964;28;20643;-89
2022/06/26 03:40:08;;;;;;;11.50;5.30;;;18.30;77.90;;;;;;5027526;28;20724;-88
2022/06/26 03:42:36;;;;;;;11.13;5.07;;;18.30;77.90;;;;;;5027914;28;20202;-88
2022/06/26 03:45:04;;;;;;;11.23;4.60;;;18.30;78.00;;;;;;5024357;28;20221;-88
2022/06/26 03:47:31;;;;;;;11.53;5.50;;;18.30;77.90;;;;;;5029175;28;20192;-91
2022/06/26 03:49:58;;;;;;;13.50;6.03;;;18.30;77.90;;;;;;5029433;28;20241;-89
2022/06/26 03:52:28;;;;;;;13.50;5.13;;;18.30;77.70;;;;;;5027637;28;20202;-88
2022/06/26 03:54:57;;;;;;;9.73;4.50;;;18.20;77.60;;;;;;5029561;28;20267;-89
2022/06/26 03:57:25;;;;;;;14.80;6.13;;;18.20;77.80;;;;;;5027003;28;20208;-89
2022/06/26 03:59:52;;;;;;;12.17;5.40;;;18.20;78.10;;;;;;5028583;28;20218;-89
2022/06/26 04:02:19;;;;;;;15.40;6.50;;;18.20;78.10;;;;;;5013411;28;20264;-90
2022/06/26 04:04:46;;;;;;;8.10;4.20;;;18.20;78.00;;;;;;5027401;28;20224;-90
2022/06/26 04:07:13;;;;;;;17.37;6.63;;;18.20;77.80;;;;;;5015044;28;20260;-89
2022/06/26 04:09:41;;;;;;;11.60;5.03;;;18.20;77.70;;;;;;5016844;28;20251;-88
2022/06/26 04:12:10;;;;;;;7.70;4.13;;;18.10;77.70;;;;;;5017633;28;20214;-90
2022/06/26 04:14:37;;;;;;;14.60;6.10;;;18.20;78.00;;;;;;5007063;28;20322;-88
2022/06/26 04:17:06;;;;;;;11.93;5.07;;;18.10;77.70;;;;;;5022930;28;20294;-87
2022/06/26 04:19:33;;;;;;;9.93;5.00;;;18.10;77.70;;;;;;5026745;28;20218;-89
2022/06/26 04:22:01;;;;;;;13.13;5.50;;;18.10;77.70;;;;;;5027961;28;20246;-88
2022/06/26 04:24:28;;;;;;;9.23;4.50;;;18.10;77.70;;;;;;5028889;28;20212;-87
2022/06/26 04:26:55;;;;;;;10.63;4.77;;;18.10;78.00;;;;;;5025772;28;20261;-87
2022/06/26 04:29:23;;;;;;;12.73;5.47;;;18.10;78.10;;;;;;5027450;28;20622;-89
2022/06/26 04:31:51;;;;;;;11.00;4.80;;;18.10;78.60;;;;;;5026239;28;20250;-89
2022/06/26 04:34:18;;;;;;;8.87;4.20;;;18.10;78.40;;;;;;5028010;28;20355;-88
2022/06/26 04:36:45;;;;;;;13.83;5.53;;;18.10;78.60;;;;;;5024619;28;20285;-88
2022/06/26 04:39:12;;;;;;;9.77;4.60;;;18.10;78.70;;;;;;5027799;28;20206;-89
2022/06/26 04:41:42;;;;;;;11.53;5.30;;;18.10;79.00;;;;;;5025944;28;20269;-89
2022/06/26 04:44:10;;;;;;;11.50;5.17;;;18.10;79.00;;;;;;5026359;28;20235;-88
2022/06/26 04:46:41;;;;;;;9.47;4.73;;;18.10;79.30;;;;;;5026384;28;20218;-89
2022/06/26 04:49:08;;;;;;;12.43;5.43;;;18.00;79.80;;;;;;5027638;28;20705;-90
2022/06/26 04:51:36;;;;;;;13.07;5.27;;;18.10;79.60;;;;;;5026831;28;20208;-90
2022/06/26 04:54:04;;;;;;;12.83;5.23;;;18.10;79.60;;;;;;5026091;28;20687;-90
2022/06/26 04:56:31;;;;;;;17.17;6.07;;;18.10;79.70;;;;;;5026526;28;20300;-90
2022/06/26 04:58:58;;;;;;;11.20;5.30;;;18.10;79.80;;;;;;5027296;28;20273;-88
2022/06/26 05:01:26;;;;;;;14.27;5.43;;;18.10;80.00;;;;;;5026751;28;20889;-88
2022/06/26 05:03:55;;;;;;;11.30;4.80;;;18.20;80.10;;;;;;5028415;28;20304;-88
2022/06/26 05:06:22;;;;;;;12.23;4.63;;;18.20;80.50;;;;;;5029775;28;20738;-89
2022/06/26 05:08:50;;;;;;;11.73;5.00;;;18.20;80.20;;;;;;5035478;28;20211;-89
2022/06/26 05:11:18;;;;;;;22.33;7.33;;;18.20;80.30;;;;;;5028051;28;20220;-88
2022/06/26 05:13:47;;;;;;;8.43;4.60;;;18.20;80.20;;;;;;5011634;28;20240;-87
2022/06/26 05:16:14;;;;;;;19.27;7.07;;;18.20;80.60;;;;;;5021856;28;20198;-88
2022/06/26 05:18:41;;;;;;;13.20;5.87;;;18.20;80.40;;;;;;5028933;28;20207;-89
2022/06/26 05:21:09;;;;;;;10.47;4.63;;;18.20;80.50;;;;;;5028731;28;20200;-88
2022/06/26 05:23:36;;;;;;;12.03;5.53;;;18.20;81.00;;;;;;5027562;28;20250;-88
2022/06/26 05:26:04;;;;;;;16.27;6.23;;;18.30;81.00;;;;;;5026497;28;20206;-88
2022/06/26 05:28:32;;;;;;;9.87;5.47;;;18.30;81.20;;;;;;5033744;28;20212;-89
2022/06/26 05:30:59;;;;;;;9.80;4.73;;;18.30;81.40;;;;;;5036016;28;20285;-89
2022/06/26 05:33:26;;;;;;;10.33;4.70;;;18.40;81.10;;;;;;5029062;28;20227;-88
2022/06/26 05:35:53;;;;;;;9.67;4.40;;;18.40;81.20;;;;;;5027771;28;20642;-90
2022/06/26 05:38:21;;;;;;;8.07;4.20;;;18.40;81.20;;;;;;5035115;28;20201;-90
2022/06/26 05:40:51;;;;;;;9.73;3.63;;;18.40;81.30;;;;;;5033911;28;20199;-89
2022/06/26 05:43:18;;;;;;;13.80;5.00;;;18.50;80.90;;;;;;5030151;28;20201;-89
2022/06/26 05:45:45;;;;;;;10.97;4.70;;;18.50;80.80;;;;;;5030696;28;20228;-88
2022/06/26 05:48:12;;;;;;;8.77;4.47;;;18.50;80.80;;;;;;5028585;28;20209;-89
2022/06/26 05:50:39;;;;;;;9.67;4.13;;;18.50;80.70;;;;;;5033145;28;20603;-89
2022/06/26 05:53:06;;;;;;;14.17;5.97;;;18.50;80.50;;;;;;5032103;28;20209;-87
2022/06/26 05:55:36;;;;;;;7.67;3.70;;;18.60;80.50;;;;;;5032371;28;20233;-87
2022/06/26 05:58:06;;;;;;;9.93;4.23;;;18.50;80.60;;;;;;5031677;28;20201;-89
2022/06/26 06:00:33;;;;;;;10.83;4.90;;;18.60;80.70;;;;;;5031674;28;20240;-88
2022/06/26 06:03:01;;;;;;;9.80;4.60;;;18.60;80.60;;;;;;5031968;28;20234;-88
2022/06/26 06:05:28;;;;;;;10.87;4.80;;;18.60;80.90;;;;;;5031164;28;20217;-88
2022/06/26 06:07:56;;;;;;;14.87;6.23;;;18.60;80.90;;;;;;5027004;28;20214;-88
2022/06/26 06:10:25;;;;;;;12.20;5.30;;;18.60;81.00;;;;;;5026934;28;20298;-87
2022/06/26 06:12:57;;;;;;;8.70;4.20;;;18.60;81.20;;;;;;5031909;28;20227;-90
2022/06/26 06:15:25;;;;;;;14.67;5.83;;;18.60;81.50;;;;;;5029358;28;20661;-89
2022/06/26 06:17:52;;;;;;;8.33;4.17;;;18.60;81.40;;;;;;5033948;28;20741;-88
2022/06/26 06:20:21;;;;;;;9.57;4.10;;;18.60;81.10;;;;;;5032214;28;20206;-89
2022/06/26 06:22:51;;;;;;;11.07;4.57;;;18.60;81.40;;;;;;5018133;28;20202;-89
2022/06/26 06:25:19;;;;;;;11.67;4.73;;;18.60;81.20;;;;;;5028733;28;20683;-88
2022/06/26 06:27:46;;;;;;;8.83;4.27;;;18.60;81.20;;;;;;5035546;28;20208;-88
2022/06/26 06:30:15;;;;;;;14.90;5.33;;;18.70;81.30;;;;;;5032540;28;20281;-89
2022/06/26 06:32:45;;;;;;;11.47;4.80;;;18.70;82.10;;;;;;5032838;28;20199;-88
2022/06/26 06:35:13;;;;;;;11.27;4.67;;;18.70;82.20;;;;;;5023072;28;20233;-87
2022/06/26 06:37:41;;;;;;;9.90;5.03;;;18.70;81.80;;;;;;5030721;28;20210;-88
2022/06/26 06:40:10;;;;;;;13.03;5.47;;;18.80;82.10;;;;;;5029628;28;20284;-88
2022/06/26 06:42:37;;;;;;;9.57;4.57;;;18.80;82.20;;;;;;5031925;28;20303;-89
2022/06/26 06:45:08;;;;;;;8.83;4.47;;;18.80;82.50;;;;;;5031063;28;21008;-88
2022/06/26 06:47:37;;;;;;;13.33;4.70;;;18.90;82.40;;;;;;5032668;28;20286;-89
2022/06/26 06:50:05;;;;;;;10.60;4.57;;;18.90;82.50;;;;;;5033556;28;20283;-90
2022/06/26 06:52:32;;;;;;;11.37;4.90;;;18.90;82.40;;;;;;5032909;28;20189;-90
2022/06/26 06:54:59;;;;;;;10.73;4.43;;;19.00;82.20;;;;;;5029674;28;20232;-89
2022/06/26 06:57:26;;;;;;;8.10;3.93;;;19.00;82.10;;;;;;5033216;28;20206;-88
2022/06/26 06:59:53;;;;;;;10.13;4.40;;;19.10;81.80;;;;;;5031593;28;20223;-89
2022/06/26 07:02:20;;;;;;;12.90;5.40;;;19.10;82.10;;;;;;5029831;28;20223;-88
2022/06/26 07:04:50;;;;;;;9.17;4.73;;;19.20;82.20;;;;;;5031595;28;20338;-88
2022/06/26 07:07:17;;;;;;;17.00;6.67;;;19.20;82.40;;;;;;5030099;28;20663;-89
2022/06/26 07:09:45;;;;;;;15.60;6.47;;;19.30;81.80;;;;;;5027899;28;20212;-89
2022/06/26 07:12:12;;;;;;;11.77;4.93;;;19.30;81.40;;;;;;5028793;28;20203;-88
2022/06/26 07:14:39;;;;;;;12.77;5.37;;;19.40;80.70;;;;;;5021738;28;20267;-90
2022/06/26 07:17:08;;;;;;;8.90;3.90;;;19.40;80.60;;;;;;5029868;28;20205;-89
2022/06/26 07:19:35;;;;;;;10.93;4.97;;;19.50;80.40;;;;;;5028509;28;20296;-88
2022/06/26 07:22:04;;;;;;;10.87;4.70;;;19.60;80.20;;;;;;5029322;28;20299;-87
2022/06/26 07:24:31;;;;;;;11.47;5.17;;;19.60;79.80;;;;;;5026999;28;20655;-88
2022/06/26 07:26:58;;;;;;;8.83;4.97;;;19.70;79.60;;;;;;5028768;28;20319;-87
2022/06/26 07:29:26;;;;;;;11.87;4.50;;;19.70;79.50;;;;;;5026886;28;20743;-90
2022/06/26 07:31:53;;;;;;;9.83;4.73;;;19.80;79.50;;;;;;5021737;28;20217;-88
2022/06/26 07:34:21;;;;;;;13.47;5.03;;;19.90;78.90;;;;;;5022875;28;20278;-89
2022/06/26 07:36:50;;;;;;;11.70;5.37;;;19.90;78.30;;;;;;5028673;28;20220;-88
2022/06/26 07:39:20;;;;;;;13.40;5.77;;;20.00;78.10;;;;;;5021288;28;20234;-90
2022/06/26 07:41:49;;;;;;;15.83;6.63;;;20.00;77.70;;;;;;5025667;28;20897;-89
2022/06/26 07:44:17;;;;;;;16.23;6.33;;;20.10;77.60;;;;;;5022064;28;20225;-87
2022/06/26 07:46:45;;;;;;;18.40;6.97;;;20.10;77.60;;;;;;5022843;28;20256;-88
2022/06/26 07:49:13;;;;;;;14.07;5.40;;;20.10;77.50;;;;;;5023079;28;20671;-88
2022/06/26 07:51:40;;;;;;;11.97;5.10;;;20.20;77.80;;;;;;5026532;28;20198;-87
2022/06/26 07:54:07;;;;;;;8.93;4.30;;;20.20;77.20;;;;;;5026688;28;20233;-88
2022/06/26 07:56:37;;;;;;;8.80;4.50;;;20.20;77.20;;;;;;5021334;28;20663;-87
2022/06/26 07:59:05;;;;;;;11.67;5.10;;;20.30;77.10;;;;;;5023895;28;20291;-87
2022/06/26 08:01:33;;;;;;;11.40;5.00;;;20.40;77.00;;;;;;5026764;28;20659;-89
2022/06/26 08:04:01;;;;;;;11.43;4.87;;;20.40;77.00;;;;;;5024377;28;20209;-88
2022/06/26 08:06:29;;;;;;;15.43;5.43;;;20.50;77.00;;;;;;5023226;28;20212;-89
2022/06/26 08:08:57;;;;;;;14.10;5.33;;;20.50;76.70;;;;;;5025647;28;20205;-88
2022/06/26 08:11:24;;;;;;;18.40;7.00;;;20.60;76.40;;;;;;5020412;28;20597;-88
2022/06/26 08:13:53;;;;;;;10.13;4.37;;;20.60;76.20;;;;;;5025042;28;20723;-88
2022/06/26 08:16:20;;;;;;;11.10;5.00;;;20.70;76.30;;;;;;5025916;28;20232;-89
2022/06/26 08:18:50;;;;;;;13.00;4.83;;;20.80;75.90;;;;;;5025923;28;20204;-86
2022/06/26 08:24:01;;;;;;;10.90;5.03;;;20.90;75.30;;;;;;5017035;28;20204;-89
2022/06/26 08:26:29;;;;;;;12.13;4.30;;;21.00;74.60;;;;;;5024203;28;20243;-90
2022/06/26 08:28:57;;;;;;;11.03;4.73;;;21.00;74.00;;;;;;5026594;28;20201;-88
2022/06/26 08:31:24;;;;;;;15.40;6.37;;;21.10;73.70;;;;;;5016314;28;20205;-89
2022/06/26 08:33:51;;;;;;;13.60;5.63;;;21.10;73.60;;;;;;5019196;28;20309;-88
2022/06/26 08:36:18;;;;;;;12.73;4.70;;;21.20;73.20;;;;;;5021953;28;20235;-91
2022/06/26 08:38:46;;;;;;;11.00;4.27;;;21.20;73.10;;;;;;5034674;28;20181;-89
2022/06/26 08:41:14;;;;;;;12.73;4.50;;;21.30;72.90;;;;;;5041852;28;20237;-88
2022/06/26 08:43:42;;;;;;;8.40;3.43;;;21.40;72.80;;;;;;5036088;28;20546;-90
2022/06/26 08:46:19;;;;;;;7.60;3.73;;;21.40;72.00;;;;;;5028978;28;20208;-91
2022/06/26 08:48:51;;;;;;;13.97;4.53;;;21.50;72.20;;;;;;5029879;28;20656;-89
2022/06/26 08:51:19;;;;;;;12.03;3.63;;;21.60;70.90;;;;;;5028509;28;20204;-90
2022/06/26 08:53:47;;;;;;;8.97;3.43;;;21.80;71.40;;;;;;5024861;28;20262;-89
2022/06/26 08:56:16;;;;;;;10.43;3.73;;;21.90;70.10;;;;;;5028930;28;20269;-92
2022/06/26 08:58:44;;;;;;;11.33;4.40;;;22.00;69.50;;;;;;5019438;28;20210;-91
2022/06/26 09:01:11;;;;;;;18.53;5.70;;;22.20;69.50;;;;;;5025130;28;20751;-88
2022/06/26 09:03:39;;;;;;;12.63;4.70;;;22.30;68.70;;;;;;5043977;28;20192;-88
2022/06/26 09:06:06;;;;;;;12.77;3.90;;;22.40;68.30;;;;;;5047843;28;20193;-89
2022/06/26 09:08:43;;;;;;;8.30;3.63;;;22.60;68.20;;;;;;5037500;28;20201;-89
2022/06/26 09:11:10;;;;;;;7.67;2.87;;;22.70;65.20;;;;;;5033758;28;20196;-90
2022/06/26 09:13:38;;;;;;;11.83;4.63;;;22.90;66.00;;;;;;5031025;28;20247;-89
2022/06/26 09:16:06;;;;;;;8.90;3.37;;;23.00;65.60;;;;;;5030669;28;20260;-88
2022/06/26 09:18:38;;;;;;;8.17;3.40;;;23.10;66.00;;;;;;5027514;28;20204;-88
2022/06/26 09:21:07;;;;;;;8.50;3.63;;;23.30;64.10;;;;;;5029449;28;20202;-89
2022/06/26 09:23:36;;;;;;;7.13;3.27;;;23.50;63.30;;;;;;5028644;28;20216;-89
2022/06/26 09:26:04;;;;;;;10.77;4.07;;;23.60;63.10;;;;;;5028303;28;20696;-88
2022/06/26 09:28:31;;;;;;;12.17;4.67;;;23.70;62.10;;;;;;5025475;28;20287;-89
2022/06/26 09:31:02;;;;;;;11.27;4.53;;;23.80;61.10;;;;;;5024885;28;20599;-91
2022/06/26 09:33:30;;;;;;;11.13;3.70;;;23.90;60.40;;;;;;5025323;28;20214;-88
2022/06/26 09:35:59;;;;;;;5.83;2.40;;;24.00;60.10;;;;;;5028779;28;20632;-89
2022/06/26 09:38:28;;;;;;;8.70;3.57;;;24.10;59.20;;;;;;5016886;28;20320;-89
2022/06/26 09:40:59;;;;;;;11.30;4.47;;;24.10;59.00;;;;;;5028719;28;20715;-88
2022/06/26 09:43:27;;;;;;;11.30;4.13;;;24.20;59.00;;;;;;5031335;28;20225;-89
2022/06/26 09:45:58;;;;;;;7.87;2.80;;;24.30;58.40;;;;;;5030980;28;20611;-87
2022/06/26 09:48:26;;;;;;;7.47;3.40;;;24.30;57.30;;;;;;5030680;28;20254;-88
2022/06/26 09:50:54;;;;;;;6.20;2.80;;;24.40;57.40;;;;;;5030584;28;20281;-89
2022/06/26 09:53:25;;;;;;;6.57;2.77;;;24.40;57.30;;;;;;5027600;28;20211;-88
2022/06/26 09:55:56;;;;;;;8.90;3.27;;;24.50;56.90;;;;;;5032730;28;20693;-88
2022/06/26 09:58:24;;;;;;;12.23;4.33;;;24.50;55.30;;;;;;5052412;28;20239;-87
2022/06/26 10:06:27;;;;;;;8.77;3.17;;;24.70;56.30;;;;;;5013098;28;20299;-90
2022/06/26 10:08:55;;;;;;;12.53;4.73;;;24.70;56.50;;;;;;5029365;28;20231;-87
2022/06/26 10:11:27;;;;;;;10.07;4.10;;;24.80;56.50;;;;;;5029591;28;20211;-88
2022/06/26 10:13:58;;;;;;;7.63;3.33;;;24.80;56.00;;;;;;5029121;28;20200;-88
2022/06/26 10:17:11;;;;;;;14.27;5.13;;;24.80;55.60;;;;;;5030078;28;20234;-90
2022/06/26 10:19:43;;;;;;;9.40;3.40;;;24.90;54.50;;;;;;5028310;28;20203;-87
2022/06/26 10:22:11;;;;;;;6.87;2.97;;;25.00;55.20;;;;;;5028003;28;20247;-89
2022/06/26 10:24:50;;;;;;;8.83;3.00;;;25.00;55.20;;;;;;5028853;28;20959;-89
2022/06/26 10:27:25;;;;;;;6.73;2.87;;;25.00;53.90;;;;;;5024453;28;20258;-87
2022/06/26 10:30:06;;;;;;;11.57;4.63;;;25.10;53.30;;;;;;5014636;28;20231;-89
2022/06/26 10:32:33;;;;;;;5.43;2.50;;;25.10;53.40;;;;;;5029697;28;20265;-89
2022/06/26 10:35:00;;;;;;;7.63;2.97;;;25.10;54.60;;;;;;5012424;28;20742;-88
2022/06/26 10:37:28;;;;;;;8.07;3.10;;;25.20;54.80;;;;;;5034303;28;20893;-89
2022/06/26 10:39:56;;;;;;;5.77;2.43;;;25.20;54.70;;;;;;5030875;28;20583;-89
2022/06/26 10:45:12;;;;;;;8.60;3.40;;;25.30;52.30;;;;;;5027381;28;20208;-91
2022/06/26 10:47:46;;;;;;;6.00;2.60;;;25.30;52.60;;;;;;5029378;28;20211;-89
2022/06/26 10:50:25;;;;;;;6.40;2.80;;;25.40;52.20;;;;;;5029501;28;20291;-89
2022/06/26 10:52:52;;;;;;;6.77;2.90;;;25.40;51.90;;;;;;5028158;28;20311;-88
2022/06/26 10:55:22;;;;;;;8.03;3.37;;;25.40;52.90;;;;;;5029597;28;20305;-88
2022/06/26 10:57:52;;;;;;;8.43;3.27;;;25.50;52.30;;;;;;5029635;28;20251;-88
2022/06/26 11:00:19;;;;;;;10.17;3.40;;;25.50;52.70;;;;;;5029636;28;20267;-88
2022/06/26 11:02:47;;;;;;;7.47;3.13;;;25.60;53.30;;;;;;5027610;28;20207;-88
2022/06/26 11:05:15;;;;;;;6.50;2.90;;;25.60;53.50;;;;;;5030669;28;20255;-89
2022/06/26 11:07:44;;;;;;;9.07;3.10;;;25.70;53.50;;;;;;5027074;28;20205;-89
2022/06/26 11:10:13;;;;;;;8.27;2.97;;;25.80;52.80;;;;;;5027673;28;20209;-90
2022/06/26 11:12:41;;;;;;;6.23;2.33;;;26.00;52.50;;;;;;5028498;28;20699;-89
2022/06/26 11:15:28;;;;;;;7.57;3.20;;;26.10;52.20;;;;;;5027487;28;20209;-89
2022/06/26 11:17:56;;;;;;;7.33;3.03;;;26.20;50.60;;;;;;5028347;28;20212;-90
2022/06/26 11:23:15;;;;;;;9.00;2.97;;;26.40;51.80;;;;;;5023021;28;20212;-88
2022/06/26 11:25:43;;;;;;;7.73;3.20;;;26.50;50.90;;;;;;5031448;28;20216;-88
2022/06/26 11:28:10;;;;;;;12.93;5.27;;;26.70;51.20;;;;;;5029776;28;20323;-88
2022/06/26 11:30:40;;;;;;;12.87;5.60;;;26.70;50.70;;;;;;5010578;28;20244;-89
2022/06/26 11:33:09;;;;;;;5.00;2.47;;;26.80;50.90;;;;;;5027662;28;20239;-89
2022/06/26 11:35:37;;;;;;;6.03;2.73;;;26.90;50.00;;;;;;5024186;28;20976;-89
2022/06/26 11:38:15;;;;;;;8.17;2.97;;;26.90;49.60;;;;;;5028154;28;20608;-92
2022/06/26 11:40:45;;;;;;;6.77;2.47;;;27.00;48.40;;;;;;5009577;28;20259;-90
2022/06/26 11:43:14;;;;;;;10.23;3.27;;;27.00;49.10;;;;;;5025066;28;20831;-90
2022/06/26 11:45:43;;;;;;;10.00;3.43;;;27.00;48.90;;;;;;5027649;28;20223;-90
2022/06/26 11:48:17;;;;;;;9.90;4.33;;;27.10;48.40;;;;;;5025052;28;20803;-90
2022/06/26 11:50:51;;;;;;;8.10;3.33;;;27.00;48.50;;;;;;5022123;28;20231;-90
2022/06/26 11:53:23;;;;;;;10.97;4.10;;;27.00;48.60;;;;;;5025979;28;20196;-90
2022/06/26 11:55:53;;;;;;;6.40;2.60;;;26.90;47.80;;;;;;5029237;28;20693;-89
2022/06/26 11:58:23;;;;;;;9.27;3.83;;;27.00;48.20;;;;;;5023568;28;20318;-88
2022/06/26 12:01:03;;;;;;;9.63;2.77;;;26.90;48.20;;;;;;5015997;28;20200;-90
2022/06/26 12:03:30;;;;;;;6.37;2.67;;;26.90;48.20;;;;;;5025685;28;20279;-92
2022/06/26 12:05:58;;;;;;;6.50;2.30;;;26.90;49.00;;;;;;5028496;28;20251;-94
2022/06/26 12:08:25;;;;;;;5.33;2.63;;;26.90;48.40;;;;;;5034948;28;20209;-90
2022/06/26 12:10:59;;;;;;;7.13;2.70;;;26.90;48.40;;;;;;5039863;28;20688;-89
2022/06/26 12:13:31;;;;;;;7.17;2.77;;;27.00;48.60;;;;;;5036405;28;20192;-89
2022/06/26 12:16:07;;;;;;;7.67;3.27;;;26.90;48.80;;;;;;5031655;28;20286;-89
2022/06/26 12:18:41;;;;;;;5.73;2.57;;;27.00;46.60;;;;;;5029847;28;20208;-93
2022/06/26 12:21:16;;;;;;;5.73;2.77;;;27.00;47.70;;;;;;5029460;28;20269;-90
2022/06/26 12:23:44;;;;;;;6.63;2.93;;;27.10;47.20;;;;;;5029977;28;20561;-91
2022/06/26 12:26:13;;;;;;;11.93;4.60;;;27.10;48.00;;;;;;5027039;28;20208;-89
2022/06/26 12:28:45;;;;;;;6.93;2.77;;;27.20;48.10;;;;;;5026226;28;20212;-89
2022/06/26 12:31:15;;;;;;;9.27;4.23;;;27.30;47.50;;;;;;5025317;28;20228;-90
2022/06/26 12:33:46;;;;;;;6.17;2.83;;;27.40;46.90;;;;;;5034993;28;20188;-88
2022/06/26 12:36:13;;;;;;;10.57;4.20;;;27.50;46.90;;;;;;5045420;28;20242;-88
2022/06/26 12:38:53;;;;;;;7.83;2.90;;;27.60;47.20;;;;;;5033104;28;20216;-91
2022/06/26 12:41:23;;;;;;;10.30;4.67;;;27.60;46.80;;;;;;5028773;28;20234;-89
2022/06/26 12:43:52;;;;;;;6.53;2.83;;;27.70;46.20;;;;;;5029173;28;20205;-88
2022/06/26 12:46:21;;;;;;;6.37;3.10;;;27.70;46.20;;;;;;5027682;28;20572;-89
2022/06/26 12:48:50;;;;;;;8.00;2.97;;;27.80;46.10;;;;;;5028541;28;20204;-92
2022/06/26 12:51:18;;;;;;;8.70;3.57;;;27.80;45.60;;;;;;5027529;28;20208;-90
2022/06/26 12:54:08;;;;;;;5.50;2.67;;;27.80;46.00;;;;;;5027251;28;20251;-91
2022/06/26 12:56:35;;;;;;;10.03;3.87;;;27.90;45.80;;;;;;5026914;28;20232;-88
2022/06/26 12:59:02;;;;;;;6.03;2.60;;;27.90;46.00;;;;;;5026972;28;20213;-88
2022/06/26 13:01:30;;;;;;;5.40;2.47;;;27.90;45.20;;;;;;5026320;28;20204;-89
2022/06/26 13:04:00;;;;;;;9.00;3.47;;;28.00;45.20;;;;;;5025656;28;20794;-89
2022/06/26 13:06:27;;;;;;;5.80;2.77;;;27.90;44.30;;;;;;5026969;28;20293;-89